• Join FlightAware (Why Join?)
  • Login
  • US Flag 
02:43AM EDT


 

Airport Tracker/Info


-or-


 

Live Flight TrackerFlight Track Log ✈ KAL1332 ✈ 17-Sep-2013 ✈ RKJY / RSU - RKSS / GMP

Flight Track Log - Related Links

Times and Time Zones

All times are in EDT time to prevent confusion due to time zone crossing. See the KAL1332 flight status page for this flight to view local times or setup timezone preferences in your user account.

Time Position Orientation Groundspeed Altitude Reporting Facility
EDT Latitude Longitude Course Direction KTS MPH feet Rate Location/Type
07:57PM 35.1346 127.5287 346° North  Level Estimated
07:58PM 35.2083 127.5069 346° North  Level Estimated
07:59PM 35.2820 127.4851 346° North  Level Estimated
08:00PM 35.3557 127.4633 346° North  Level Estimated
08:01PM 35.4293 127.4414 346° North  Level Estimated
08:02PM 35.5145 127.4161 346° North  Level Estimated
08:03PM 35.5997 127.3906 346° North  Level Estimated
08:04PM 35.6849 127.3652 346° North  Level Estimated
08:05PM 35.7700 127.3397 346° North  Level Estimated
08:06PM 35.8552 127.3141 346° North  Level Estimated
08:07PM 35.9403 127.2885 346° North  Level Estimated
08:08PM 36.0255 127.2628 346° North  Level Estimated
08:09PM 36.1106 127.2371 346° North  Level Estimated
08:10PM 36.1958 127.2113 346° North  Level Estimated
08:11PM 36.2809 127.1855 346° North  Level Estimated
08:12PM 36.3661 127.1596 346° North  Level Estimated
08:13PM 36.4512 127.1336 346° North  Level Estimated
08:14PM 36.5363 127.1076 346° North  Level Estimated
08:15PM 36.6214 127.0816 346° North  Level Estimated
08:16PM 36.7065 127.0554 346° North  Level Estimated
08:17PM 36.7916 127.0292 346° North  Level Estimated
08:18PM 36.8767 127.0030 346° North  Level Estimated
08:19PM 36.9618 126.9767 346° North  Level Estimated
08:20PM 37.0469 126.9503 346° North  Level Estimated
08:21PM 37.1320 126.9239 346° North  Level Estimated
08:22PM 37.2170 126.8974 346° North  Level Estimated
08:23PM 37.3021 126.8709 346° North  Level Estimated
08:24PM 37.3872 126.8443 346° North  Level Estimated
08:25PM 37.4722 126.8176 346° North  Level Estimated
08:26PM 37.5573 126.7909 346° North  Level Estimated
08:27PM 37.5583 126.7906 346° North  Level Estimated
08:28PM 37.5583 126.7906 288° West  Level Estimated
08:29PM 37.5583 126.7906 288° West  Level Estimated
08:30PM 37.5583 126.7906 288° West  Level Estimated
08:31PM 37.5583 126.7906 288° West  Level Estimated
08:32PM 37.5583 126.7906 288° West  Level Estimated